sensor_id;sensor_type;location;lat;lon;timestamp;temperature;humidity
18141;DHT22;9196;49.194;12.526;2024-03-08T00:02:17;2.70;99.90
18141;DHT22;9196;49.194;12.526;2024-03-08T00:04:44;2.80;99.90
18141;DHT22;9196;49.194;12.526;2024-03-08T00:07:11;2.70;99.90
18141;DHT22;9196;49.194;12.526;2024-03-08T00:09:38;2.60;99.90
18141;DHT22;9196;49.194;12.526;2024-03-08T00:12:07;2.60;99.90
18141;DHT22;9196;49.194;12.526;2024-03-08T00:14:34;2.60;99.90
18141;DHT22;9196;49.194;12.526;2024-03-08T00:17:02;2.60;99.90
18141;DHT22;9196;49.194;12.526;2024-03-08T00:19:29;2.60;99.90
18141;DHT22;9196;49.194;12.526;2024-03-08T00:21:56;2.60;99.90
18141;DHT22;9196;49.194;12.526;2024-03-08T00:24:23;2.50;99.90
18141;DHT22;9196;49.194;12.526;2024-03-08T00:26:50;2.50;99.90
18141;DHT22;9196;49.194;12.526;2024-03-08T00:29:20;2.50;99.90
18141;DHT22;9196;49.194;12.526;2024-03-08T00:31:47;2.50;99.90
18141;DHT22;9196;49.194;12.526;2024-03-08T00:34:14;2.50;99.90
18141;DHT22;9196;49.194;12.526;2024-03-08T00:36:41;2.50;99.90
18141;DHT22;9196;49.194;12.526;2024-03-08T00:39:08;2.40;99.90
18141;DHT22;9196;49.194;12.526;2024-03-08T00:41:34;2.50;99.90
18141;DHT22;9196;49.194;12.526;2024-03-08T00:44:01;2.40;99.90
18141;DHT22;9196;49.194;12.526;2024-03-08T00:46:31;2.50;99.90
18141;DHT22;9196;49.194;12.526;2024-03-08T00:48:59;2.40;99.90
18141;DHT22;9196;49.194;12.526;2024-03-08T00:51:26;2.30;99.90
18141;DHT22;9196;49.194;12.526;2024-03-08T00:53:53;2.20;99.90
18141;DHT22;9196;49.194;12.526;2024-03-08T00:56:20;2.20;99.90
18141;DHT22;9196;49.194;12.526;2024-03-08T00:58:46;2.10;99.90
18141;DHT22;9196;49.194;12.526;2024-03-08T01:01:13;2.10;99.90
18141;DHT22;9196;49.194;12.526;2024-03-08T01:03:44;2.10;99.90
18141;DHT22;9196;49.194;12.526;2024-03-08T01:06:11;2.10;99.90
18141;DHT22;9196;49.194;12.526;2024-03-08T01:08:38;2.10;99.90
18141;DHT22;9196;49.194;12.526;2024-03-08T01:11:07;2.10;99.90
18141;DHT22;9196;49.194;12.526;2024-03-08T01:13:34;2.10;99.90
18141;DHT22;9196;49.194;12.526;2024-03-08T01:16:01;2.20;99.90
18141;DHT22;9196;49.194;12.526;2024-03-08T01:18:29;2.20;99.90
18141;DHT22;9196;49.194;12.526;2024-03-08T01:20:57;2.20;99.90
18141;DHT22;9196;49.194;12.526;2024-03-08T01:23:24;2.20;99.90
18141;DHT22;9196;49.194;12.526;2024-03-08T01:25:50;2.10;99.90
18141;DHT22;9196;49.194;12.526;2024-03-08T01:28:22;2.20;99.90
18141;DHT22;9196;49.194;12.526;2024-03-08T01:30:49;2.20;99.90
18141;DHT22;9196;49.194;12.526;2024-03-08T01:33:21;2.20;99.90
18141;DHT22;9196;49.194;12.526;2024-03-08T01:35:48;2.20;99.90
18141;DHT22;9196;49.194;12.526;2024-03-08T01:38:16;2.20;99.90
18141;DHT22;9196;49.194;12.526;2024-03-08T01:40:43;2.10;99.90
18141;DHT22;9196;49.194;12.526;2024-03-08T01:43:18;2.10;99.90
18141;DHT22;9196;49.194;12.526;2024-03-08T01:45:45;2.10;99.90
18141;DHT22;9196;49.194;12.526;2024-03-08T01:48:12;2.20;99.90
18141;DHT22;9196;49.194;12.526;2024-03-08T01:50:40;2.20;99.90
18141;DHT22;9196;49.194;12.526;2024-03-08T01:53:08;2.10;99.90
18141;DHT22;9196;49.194;12.526;2024-03-08T01:55:37;2.10;99.90
18141;DHT22;9196;49.194;12.526;2024-03-08T01:58:04;2.00;99.90
18141;DHT22;9196;49.194;12.526;2024-03-08T02:00:32;2.00;99.90
18141;DHT22;9196;49.194;12.526;2024-03-08T02:02:59;2.00;99.90
18141;DHT22;9196;49.194;12.526;2024-03-08T02:05:26;2.00;99.90
18141;DHT22;9196;49.194;12.526;2024-03-08T02:07:53;2.10;99.90
18141;DHT22;9196;49.194;12.526;2024-03-08T02:10:20;2.10;99.90
18141;DHT22;9196;49.194;12.526;2024-03-08T02:12:49;2.10;99.90
18141;DHT22;9196;49.194;12.526;2024-03-08T02:15:16;2.10;99.90
18141;DHT22;9196;49.194;12.526;2024-03-08T02:17:43;2.10;99.90
18141;DHT22;9196;49.194;12.526;2024-03-08T02:20:10;2.10;99.90
18141;DHT22;9196;49.194;12.526;2024-03-08T02:22:40;2.00;99.90
18141;DHT22;9196;49.194;12.526;2024-03-08T02:25:08;2.10;99.90
18141;DHT22;9196;49.194;12.526;2024-03-08T02:27:35;2.00;99.90
18141;DHT22;9196;49.194;12.526;2024-03-08T02:30:03;1.90;99.90
18141;DHT22;9196;49.194;12.526;2024-03-08T02:32:30;1.90;99.90
18141;DHT22;9196;49.194;12.526;2024-03-08T02:34:58;1.90;99.90
18141;DHT22;9196;49.194;12.526;2024-03-08T02:37:25;1.90;99.90
18141;DHT22;9196;49.194;12.526;2024-03-08T02:39:55;1.90;99.90
18141;DHT22;9196;49.194;12.526;2024-03-08T02:42:22;1.90;99.90
18141;DHT22;9196;49.194;12.526;2024-03-08T02:44:48;1.90;99.90
18141;DHT22;9196;49.194;12.526;2024-03-08T02:47:15;1.90;99.90
18141;DHT22;9196;49.194;12.526;2024-03-08T02:49:42;1.90;99.90
18141;DHT22;9196;49.194;12.526;2024-03-08T02:52:09;1.90;99.90
18141;DHT22;9196;49.194;12.526;2024-03-08T02:54:36;1.90;99.90
18141;DHT22;9196;49.194;12.526;2024-03-08T02:57:05;1.90;99.90
18141;DHT22;9196;49.194;12.526;2024-03-08T02:59:33;1.90;99.90
18141;DHT22;9196;49.194;12.526;2024-03-08T03:02:00;1.90;99.90
18141;DHT22;9196;49.194;12.526;2024-03-08T03:04:27;1.90;99.90
18141;DHT22;9196;49.194;12.526;2024-03-08T03:06:54;1.90;99.90
18141;DHT22;9196;49.194;12.526;2024-03-08T03:09:21;1.90;99.90
18141;DHT22;9196;49.194;12.526;2024-03-08T03:11:53;1.80;99.90
18141;DHT22;9196;49.194;12.526;2024-03-08T03:14:21;1.80;99.90
18141;DHT22;9196;49.194;12.526;2024-03-08T03:16:48;1.80;99.90
18141;DHT22;9196;49.194;12.526;2024-03-08T03:19:15;1.80;99.90
18141;DHT22;9196;49.194;12.526;2024-03-08T03:21:42;1.70;99.90
18141;DHT22;9196;49.194;12.526;2024-03-08T03:24:09;1.60;99.90
18141;DHT22;9196;49.194;12.526;2024-03-08T03:26:36;1.70;99.90
18141;DHT22;9196;49.194;12.526;2024-03-08T03:29:05;1.70;99.90
18141;DHT22;9196;49.194;12.526;2024-03-08T03:31:35;1.70;99.90
18141;DHT22;9196;49.194;12.526;2024-03-08T03:34:03;1.70;99.90
18141;DHT22;9196;49.194;12.526;2024-03-08T03:36:30;1.70;99.90
18141;DHT22;9196;49.194;12.526;2024-03-08T03:38:57;1.70;99.90
18141;DHT22;9196;49.194;12.526;2024-03-08T03:41:35;1.70;99.90
18141;DHT22;9196;49.194;12.526;2024-03-08T03:44:02;1.70;99.90
18141;DHT22;9196;49.194;12.526;2024-03-08T03:46:29;1.70;99.90
18141;DHT22;9196;49.194;12.526;2024-03-08T03:48:57;1.70;99.90
18141;DHT22;9196;49.194;12.526;2024-03-08T03:51:24;1.60;99.90
18141;DHT22;9196;49.194;12.526;2024-03-08T03:53:51;1.60;99.90
18141;DHT22;9196;49.194;12.526;2024-03-08T03:56:18;1.60;99.90
18141;DHT22;9196;49.194;12.526;2024-03-08T03:58:45;1.70;99.90
18141;DHT22;9196;49.194;12.526;2024-03-08T04:01:23;1.60;99.90
18141;DHT22;9196;49.194;12.526;2024-03-08T04:03:50;1.50;99.90
18141;DHT22;9196;49.194;12.526;2024-03-08T04:06:18;1.50;99.90
18141;DHT22;9196;49.194;12.526;2024-03-08T04:08:45;1.40;99.90
18141;DHT22;9196;49.194;12.526;2024-03-08T04:11:12;1.30;99.90
18141;DHT22;9196;49.194;12.526;2024-03-08T04:13:41;1.40;99.90
18141;DHT22;9196;49.194;12.526;2024-03-08T04:16:08;1.40;99.90
18141;DHT22;9196;49.194;12.526;2024-03-08T04:18:36;1.50;99.90
18141;DHT22;9196;49.194;12.526;2024-03-08T04:21:04;1.50;99.90
18141;DHT22;9196;49.194;12.526;2024-03-08T04:23:34;1.50;99.90
18141;DHT22;9196;49.194;12.526;2024-03-08T04:26:01;1.50;99.90
18141;DHT22;9196;49.194;12.526;2024-03-08T04:28:29;1.50;99.90
18141;DHT22;9196;49.194;12.526;2024-03-08T04:30:56;1.60;99.90
18141;DHT22;9196;49.194;12.526;2024-03-08T04:33:23;1.60;99.90
18141;DHT22;9196;49.194;12.526;2024-03-08T04:35:50;1.60;99.90
18141;DHT22;9196;49.194;12.526;2024-03-08T04:38:17;1.60;99.90
18141;DHT22;9196;49.194;12.526;2024-03-08T04:40:45;1.70;99.90
18141;DHT22;9196;49.194;12.526;2024-03-08T04:43:12;1.70;99.90
18141;DHT22;9196;49.194;12.526;2024-03-08T04:45:40;1.70;99.90
18141;DHT22;9196;49.194;12.526;2024-03-08T04:48:07;1.70;99.90
18141;DHT22;9196;49.194;12.526;2024-03-08T04:50:35;1.70;99.90
18141;DHT22;9196;49.194;12.526;2024-03-08T04:53:03;1.70;99.90
18141;DHT22;9196;49.194;12.526;2024-03-08T04:55:33;1.70;99.90
18141;DHT22;9196;49.194;12.526;2024-03-08T04:58:01;1.70;99.90
18141;DHT22;9196;49.194;12.526;2024-03-08T05:00:29;1.60;99.90
18141;DHT22;9196;49.194;12.526;2024-03-08T05:02:56;1.70;99.90
18141;DHT22;9196;49.194;12.526;2024-03-08T05:05:23;1.60;99.90
18141;DHT22;9196;49.194;12.526;2024-03-08T05:07:51;1.60;99.90
18141;DHT22;9196;49.194;12.526;2024-03-08T05:10:19;1.60;99.90
18141;DHT22;9196;49.194;12.526;2024-03-08T05:12:46;1.70;99.90
18141;DHT22;9196;49.194;12.526;2024-03-08T05:15:14;1.70;99.90
18141;DHT22;9196;49.194;12.526;2024-03-08T05:17:41;1.60;99.90
18141;DHT22;9196;49.194;12.526;2024-03-08T05:20:08;1.70;99.90
18141;DHT22;9196;49.194;12.526;2024-03-08T05:22:38;1.60;99.90
18141;DHT22;9196;49.194;12.526;2024-03-08T05:25:06;1.70;99.90
18141;DHT22;9196;49.194;12.526;2024-03-08T05:27:34;1.70;99.90
18141;DHT22;9196;49.194;12.526;2024-03-08T05:30:02;1.70;99.90
18141;DHT22;9196;49.194;12.526;2024-03-08T05:32:30;1.60;99.90
18141;DHT22;9196;49.194;12.526;2024-03-08T05:34:57;1.60;99.90
18141;DHT22;9196;49.194;12.526;2024-03-08T05:37:24;1.60;99.90
18141;DHT22;9196;49.194;12.526;2024-03-08T05:39:51;1.70;99.90
18141;DHT22;9196;49.194;12.526;2024-03-08T05:42:19;1.70;99.90
18141;DHT22;9196;49.194;12.526;2024-03-08T05:44:46;1.70;99.90
18141;DHT22;9196;49.194;12.526;2024-03-08T05:47:13;1.70;99.90
18141;DHT22;9196;49.194;12.526;2024-03-08T05:49:42;1.70;99.90
18141;DHT22;9196;49.194;12.526;2024-03-08T05:52:09;1.60;99.90
18141;DHT22;9196;49.194;12.526;2024-03-08T05:54:36;1.60;99.90
18141;DHT22;9196;49.194;12.526;2024-03-08T05:57:03;1.60;99.90
18141;DHT22;9196;49.194;12.526;2024-03-08T05:59:32;1.60;99.90
18141;DHT22;9196;49.194;12.526;2024-03-08T06:01:58;1.60;99.90
18141;DHT22;9196;49.194;12.526;2024-03-08T06:04:25;1.50;99.90
18141;DHT22;9196;49.194;12.526;2024-03-08T06:06:54;1.60;99.90
18141;DHT22;9196;49.194;12.526;2024-03-08T06:09:22;1.60;99.90
18141;DHT22;9196;49.194;12.526;2024-03-08T06:11:50;1.70;99.90
18141;DHT22;9196;49.194;12.526;2024-03-08T06:14:16;1.70;99.90
18141;DHT22;9196;49.194;12.526;2024-03-08T06:16:44;1.70;99.90
18141;DHT22;9196;49.194;12.526;2024-03-08T06:19:12;1.60;99.90
18141;DHT22;9196;49.194;12.526;2024-03-08T06:21:39;1.60;99.90
18141;DHT22;9196;49.194;12.526;2024-03-08T06:24:08;1.60;99.90
18141;DHT22;9196;49.194;12.526;2024-03-08T06:26:35;1.60;99.90
18141;DHT22;9196;49.194;12.526;2024-03-08T06:29:03;1.60;99.90
18141;DHT22;9196;49.194;12.526;2024-03-08T06:31:32;1.60;99.90
18141;DHT22;9196;49.194;12.526;2024-03-08T06:33:59;1.70;99.90
18141;DHT22;9196;49.194;12.526;2024-03-08T06:36:25;1.70;99.90
18141;DHT22;9196;49.194;12.526;2024-03-08T06:38:53;1.70;99.90
18141;DHT22;9196;49.194;12.526;2024-03-08T06:41:23;1.80;99.90
18141;DHT22;9196;49.194;12.526;2024-03-08T06:43:50;1.80;99.90
18141;DHT22;9196;49.194;12.526;2024-03-08T06:46:22;1.80;99.90
18141;DHT22;9196;49.194;12.526;2024-03-08T06:48:49;1.90;99.90
18141;DHT22;9196;49.194;12.526;2024-03-08T06:51:16;1.90;99.90
18141;DHT22;9196;49.194;12.526;2024-03-08T06:53:43;2.00;99.90
18141;DHT22;9196;49.194;12.526;2024-03-08T06:56:10;2.00;99.90
18141;DHT22;9196;49.194;12.526;2024-03-08T06:58:38;2.10;99.90
18141;DHT22;9196;49.194;12.526;2024-03-08T07:01:05;2.20;99.90
18141;DHT22;9196;49.194;12.526;2024-03-08T07:03:33;2.20;99.90
18141;DHT22;9196;49.194;12.526;2024-03-08T07:06:00;2.30;99.90
18141;DHT22;9196;49.194;12.526;2024-03-08T07:08:28;2.40;99.90
18141;DHT22;9196;49.194;12.526;2024-03-08T07:10:55;2.50;99.90
18141;DHT22;9196;49.194;12.526;2024-03-08T07:13:23;2.50;99.90
18141;DHT22;9196;49.194;12.526;2024-03-08T07:15:51;2.60;99.90
18141;DHT22;9196;49.194;12.526;2024-03-08T07:18:18;2.80;99.90
18141;DHT22;9196;49.194;12.526;2024-03-08T07:20:45;2.90;99.90
18141;DHT22;9196;49.194;12.526;2024-03-08T07:23:12;2.90;99.90
18141;DHT22;9196;49.194;12.526;2024-03-08T07:25:59;3.10;99.90
18141;DHT22;9196;49.194;12.526;2024-03-08T07:28:26;3.10;99.90
18141;DHT22;9196;49.194;12.526;2024-03-08T07:30:54;3.20;99.90
18141;DHT22;9196;49.194;12.526;2024-03-08T07:33:33;3.30;99.90
18141;DHT22;9196;49.194;12.526;2024-03-08T07:36:00;3.40;99.90
18141;DHT22;9196;49.194;12.526;2024-03-08T07:38:27;3.60;99.90
18141;DHT22;9196;49.194;12.526;2024-03-08T07:40:55;3.60;99.90
18141;DHT22;9196;49.194;12.526;2024-03-08T07:43:22;3.60;99.90
18141;DHT22;9196;49.194;12.526;2024-03-08T07:45:49;3.70;99.90
18141;DHT22;9196;49.194;12.526;2024-03-08T07:48:19;3.70;99.90
18141;DHT22;9196;49.194;12.526;2024-03-08T07:50:46;3.80;99.90
18141;DHT22;9196;49.194;12.526;2024-03-08T07:53:15;3.80;99.90
18141;DHT22;9196;49.194;12.526;2024-03-08T07:55:42;3.90;99.90
18141;DHT22;9196;49.194;12.526;2024-03-08T07:58:10;3.80;99.90
18141;DHT22;9196;49.194;12.526;2024-03-08T08:00:37;4.00;99.90
18141;DHT22;9196;49.194;12.526;2024-03-08T08:03:04;4.10;99.90
18141;DHT22;9196;49.194;12.526;2024-03-08T08:05:32;4.40;99.90
18141;DHT22;9196;49.194;12.526;2024-03-08T08:08:01;4.50;99.90
18141;DHT22;9196;49.194;12.526;2024-03-08T08:10:28;4.60;99.90
18141;DHT22;9196;49.194;12.526;2024-03-08T08:12:55;4.80;99.90
18141;DHT22;9196;49.194;12.526;2024-03-08T08:15:22;4.90;99.90
18141;DHT22;9196;49.194;12.526;2024-03-08T08:17:49;5.00;99.90
18141;DHT22;9196;49.194;12.526;2024-03-08T08:20:17;5.10;99.90
18141;DHT22;9196;49.194;12.526;2024-03-08T08:22:46;5.20;99.90
18141;DHT22;9196;49.194;12.526;2024-03-08T08:25:13;5.30;99.90
18141;DHT22;9196;49.194;12.526;2024-03-08T08:27:41;5.40;99.90
18141;DHT22;9196;49.194;12.526;2024-03-08T08:30:09;5.50;99.90
18141;DHT22;9196;49.194;12.526;2024-03-08T08:32:37;5.70;99.90
18141;DHT22;9196;49.194;12.526;2024-03-08T08:35:06;5.70;99.90
18141;DHT22;9196;49.194;12.526;2024-03-08T08:37:39;5.70;99.90
18141;DHT22;9196;49.194;12.526;2024-03-08T08:40:08;5.70;99.90
18141;DHT22;9196;49.194;12.526;2024-03-08T08:42:39;5.60;99.90
18141;DHT22;9196;49.194;12.526;2024-03-08T08:45:07;5.70;99.90
18141;DHT22;9196;49.194;12.526;2024-03-08T08:47:34;5.70;99.90
18141;DHT22;9196;49.194;12.526;2024-03-08T08:50:01;5.70;99.90
18141;DHT22;9196;49.194;12.526;2024-03-08T08:52:29;5.90;99.90
18141;DHT22;9196;49.194;12.526;2024-03-08T08:54:57;6.40;99.90
18141;DHT22;9196;49.194;12.526;2024-03-08T08:57:25;6.90;99.90
18141;DHT22;9196;49.194;12.526;2024-03-08T08:59:52;7.10;99.90
18141;DHT22;9196;49.194;12.526;2024-03-08T09:02:20;7.30;99.90
18141;DHT22;9196;49.194;12.526;2024-03-08T09:04:47;7.70;99.90
18141;DHT22;9196;49.194;12.526;2024-03-08T09:07:14;7.90;99.90
18141;DHT22;9196;49.194;12.526;2024-03-08T09:09:42;7.80;99.90
18141;DHT22;9196;49.194;12.526;2024-03-08T09:12:09;7.90;99.90
18141;DHT22;9196;49.194;12.526;2024-03-08T09:14:40;8.00;99.90
18141;DHT22;9196;49.194;12.526;2024-03-08T09:17:07;8.00;99.90
18141;DHT22;9196;49.194;12.526;2024-03-08T09:19:34;8.10;99.90
18141;DHT22;9196;49.194;12.526;2024-03-08T09:22:02;8.10;99.90
18141;DHT22;9196;49.194;12.526;2024-03-08T09:24:29;8.20;99.90
18141;DHT22;9196;49.194;12.526;2024-03-08T09:26:56;8.20;99.90
18141;DHT22;9196;49.194;12.526;2024-03-08T09:29:24;8.40;99.90
18141;DHT22;9196;49.194;12.526;2024-03-08T09:31:52;8.40;99.90
18141;DHT22;9196;49.194;12.526;2024-03-08T09:34:19;8.50;99.90
18141;DHT22;9196;49.194;12.526;2024-03-08T09:36:45;8.60;99.90
18141;DHT22;9196;49.194;12.526;2024-03-08T09:39:12;8.40;99.90
18141;DHT22;9196;49.194;12.526;2024-03-08T09:41:42;8.20;99.90
18141;DHT22;9196;49.194;12.526;2024-03-08T09:44:10;8.60;99.90
18141;DHT22;9196;49.194;12.526;2024-03-08T09:46:37;8.80;99.90
18141;DHT22;9196;49.194;12.526;2024-03-08T09:49:05;8.60;99.90
18141;DHT22;9196;49.194;12.526;2024-03-08T09:51:34;8.50;99.40
18141;DHT22;9196;49.194;12.526;2024-03-08T09:54:01;8.20;99.90
18141;DHT22;9196;49.194;12.526;2024-03-08T09:56:31;8.20;99.90
18141;DHT22;9196;49.194;12.526;2024-03-08T09:58:58;8.40;99.90
18141;DHT22;9196;49.194;12.526;2024-03-08T10:01:42;8.40;99.90
18141;DHT22;9196;49.194;12.526;2024-03-08T10:04:11;8.20;99.90
18141;DHT22;9196;49.194;12.526;2024-03-08T10:06:39;8.30;99.90
18141;DHT22;9196;49.194;12.526;2024-03-08T10:09:06;8.40;99.90
18141;DHT22;9196;49.194;12.526;2024-03-08T10:11:33;8.50;99.90
18141;DHT22;9196;49.194;12.526;2024-03-08T10:14:00;8.40;99.90
18141;DHT22;9196;49.194;12.526;2024-03-08T10:16:28;8.50;99.90
18141;DHT22;9196;49.194;12.526;2024-03-08T10:18:56;8.50;99.90
18141;DHT22;9196;49.194;12.526;2024-03-08T10:21:24;8.60;99.90
18141;DHT22;9196;49.194;12.526;2024-03-08T10:23:51;8.70;99.90
18141;DHT22;9196;49.194;12.526;2024-03-08T10:26:18;8.70;99.90
18141;DHT22;9196;49.194;12.526;2024-03-08T10:28:47;8.80;99.90
18141;DHT22;9196;49.194;12.526;2024-03-08T10:31:14;8.80;99.90
18141;DHT22;9196;49.194;12.526;2024-03-08T10:33:41;8.80;99.90
18141;DHT22;9196;49.194;12.526;2024-03-08T10:36:10;9.10;99.70
18141;DHT22;9196;49.194;12.526;2024-03-08T10:38:39;9.10;99.00
18141;DHT22;9196;49.194;12.526;2024-03-08T10:41:08;8.90;98.90
18141;DHT22;9196;49.194;12.526;2024-03-08T10:43:47;8.90;99.60
18141;DHT22;9196;49.194;12.526;2024-03-08T10:46:26;8.90;99.80
18141;DHT22;9196;49.194;12.526;2024-03-08T10:48:58;9.10;99.70
18141;DHT22;9196;49.194;12.526;2024-03-08T10:51:29;9.20;99.70
18141;DHT22;9196;49.194;12.526;2024-03-08T10:53:58;9.30;98.80
18141;DHT22;9196;49.194;12.526;2024-03-08T10:56:28;9.30;98.50
18141;DHT22;9196;49.194;12.526;2024-03-08T10:58:56;9.30;98.40
18141;DHT22;9196;49.194;12.526;2024-03-08T11:01:23;9.20;98.90
18141;DHT22;9196;49.194;12.526;2024-03-08T11:03:51;9.20;98.70
18141;DHT22;9196;49.194;12.526;2024-03-08T11:06:29;9.40;98.60
18141;DHT22;9196;49.194;12.526;2024-03-08T11:08:57;9.50;99.20
18141;DHT22;9196;49.194;12.526;2024-03-08T11:11:29;9.70;98.80
18141;DHT22;9196;49.194;12.526;2024-03-08T11:14:00;9.60;97.70
18141;DHT22;9196;49.194;12.526;2024-03-08T11:16:38;9.30;98.10
18141;DHT22;9196;49.194;12.526;2024-03-08T11:19:23;9.40;98.60
18141;DHT22;9196;49.194;12.526;2024-03-08T11:22:00;9.50;99.20
18141;DHT22;9196;49.194;12.526;2024-03-08T11:24:37;9.80;98.20
18141;DHT22;9196;49.194;12.526;2024-03-08T11:27:05;10.10;97.50
18141;DHT22;9196;49.194;12.526;2024-03-08T11:29:36;10.20;96.50
18141;DHT22;9196;49.194;12.526;2024-03-08T11:32:07;9.90;97.20
18141;DHT22;9196;49.194;12.526;2024-03-08T11:34:35;10.00;97.70
18141;DHT22;9196;49.194;12.526;2024-03-08T11:37:04;10.10;97.00
18141;DHT22;9196;49.194;12.526;2024-03-08T11:39:34;10.10;96.90
18141;DHT22;9196;49.194;12.526;2024-03-08T11:42:02;10.10;96.90
18141;DHT22;9196;49.194;12.526;2024-03-08T11:44:29;10.20;97.20
18141;DHT22;9196;49.194;12.526;2024-03-08T11:46:57;10.50;98.70
18141;DHT22;9196;49.194;12.526;2024-03-08T11:49:24;10.80;97.50
18141;DHT22;9196;49.194;12.526;2024-03-08T11:51:52;10.80;96.30
18141;DHT22;9196;49.194;12.526;2024-03-08T11:54:19;10.90;95.90
18141;DHT22;9196;49.194;12.526;2024-03-08T11:56:47;10.80;95.30
18141;DHT22;9196;49.194;12.526;2024-03-08T11:59:17;10.70;95.80
18141;DHT22;9196;49.194;12.526;2024-03-08T12:01:58;10.60;96.20
18141;DHT22;9196;49.194;12.526;2024-03-08T12:04:25;10.50;96.30
18141;DHT22;9196;49.194;12.526;2024-03-08T12:06:52;10.50;96.60
18141;DHT22;9196;49.194;12.526;2024-03-08T12:09:18;10.70;96.40
18141;DHT22;9196;49.194;12.526;2024-03-08T12:11:49;11.00;96.60
18141;DHT22;9196;49.194;12.526;2024-03-08T12:14:16;11.20;95.70
18141;DHT22;9196;49.194;12.526;2024-03-08T12:16:43;11.60;95.50
18141;DHT22;9196;49.194;12.526;2024-03-08T12:19:11;11.60;95.00
18141;DHT22;9196;49.194;12.526;2024-03-08T12:21:38;11.60;94.70
18141;DHT22;9196;49.194;12.526;2024-03-08T12:24:15;11.60;94.30
18141;DHT22;9196;49.194;12.526;2024-03-08T12:26:45;11.50;94.30
18141;DHT22;9196;49.194;12.526;2024-03-08T12:29:20;11.60;94.30
18141;DHT22;9196;49.194;12.526;2024-03-08T12:31:50;11.60;93.80
18141;DHT22;9196;49.194;12.526;2024-03-08T12:34:17;11.60;94.20
18141;DHT22;9196;49.194;12.526;2024-03-08T12:36:47;11.80;93.90
18141;DHT22;9196;49.194;12.526;2024-03-08T12:39:16;11.90;93.70
18141;DHT22;9196;49.194;12.526;2024-03-08T12:41:47;11.80;93.10
18141;DHT22;9196;49.194;12.526;2024-03-08T12:44:14;11.70;93.50
18141;DHT22;9196;49.194;12.526;2024-03-08T12:46:44;11.90;92.80
18141;DHT22;9196;49.194;12.526;2024-03-08T12:49:11;11.70;92.50
18141;DHT22;9196;49.194;12.526;2024-03-08T12:51:38;11.60;92.90
18141;DHT22;9196;49.194;12.526;2024-03-08T12:54:05;11.60;92.90
18141;DHT22;9196;49.194;12.526;2024-03-08T12:56:35;11.60;91.90
18141;DHT22;9196;49.194;12.526;2024-03-08T12:59:03;11.50;91.70
18141;DHT22;9196;49.194;12.526;2024-03-08T13:01:31;11.50;92.30
18141;DHT22;9196;49.194;12.526;2024-03-08T13:04:00;11.30;91.70
18141;DHT22;9196;49.194;12.526;2024-03-08T13:06:27;11.20;92.70
18141;DHT22;9196;49.194;12.526;2024-03-08T13:08:54;11.10;92.50
18141;DHT22;9196;49.194;12.526;2024-03-08T13:11:22;11.10;92.70
18141;DHT22;9196;49.194;12.526;2024-03-08T13:13:50;11.40;92.20
18141;DHT22;9196;49.194;12.526;2024-03-08T13:16:16;11.50;91.30
18141;DHT22;9196;49.194;12.526;2024-03-08T13:18:44;11.50;91.10
18141;DHT22;9196;49.194;12.526;2024-03-08T13:21:15;11.20;92.00
18141;DHT22;9196;49.194;12.526;2024-03-08T13:23:45;11.20;91.80
18141;DHT22;9196;49.194;12.526;2024-03-08T13:26:15;11.50;92.10
18141;DHT22;9196;49.194;12.526;2024-03-08T13:28:42;11.60;91.30
18141;DHT22;9196;49.194;12.526;2024-03-08T13:31:09;11.50;92.00
18141;DHT22;9196;49.194;12.526;2024-03-08T13:33:36;11.80;91.70
18141;DHT22;9196;49.194;12.526;2024-03-08T13:36:05;11.70;91.20
18141;DHT22;9196;49.194;12.526;2024-03-08T13:38:45;11.90;91.30
18141;DHT22;9196;49.194;12.526;2024-03-08T13:41:13;12.10;90.50
18141;DHT22;9196;49.194;12.526;2024-03-08T13:43:40;12.20;90.60
18141;DHT22;9196;49.194;12.526;2024-03-08T13:46:07;11.90;90.60
18141;DHT22;9196;49.194;12.526;2024-03-08T13:48:36;12.00;91.00
18141;DHT22;9196;49.194;12.526;2024-03-08T13:51:04;11.90;89.80
18141;DHT22;9196;49.194;12.526;2024-03-08T13:53:31;11.60;90.80
18141;DHT22;9196;49.194;12.526;2024-03-08T13:56:00;11.60;90.60
18141;DHT22;9196;49.194;12.526;2024-03-08T13:58:27;11.70;91.20
18141;DHT22;9196;49.194;12.526;2024-03-08T14:00:54;11.90;91.40
18141;DHT22;9196;49.194;12.526;2024-03-08T14:03:21;12.10;89.60
18141;DHT22;9196;49.194;12.526;2024-03-08T14:05:49;12.30;90.20
18141;DHT22;9196;49.194;12.526;2024-03-08T14:08:16;12.30;89.20
18141;DHT22;9196;49.194;12.526;2024-03-08T14:10:43;12.00;88.10
18141;DHT22;9196;49.194;12.526;2024-03-08T14:13:13;12.00;90.10
18141;DHT22;9196;49.194;12.526;2024-03-08T14:15:41;12.20;88.80
18141;DHT22;9196;49.194;12.526;2024-03-08T14:18:10;12.10;88.40
18141;DHT22;9196;49.194;12.526;2024-03-08T14:20:38;11.60;90.00
18141;DHT22;9196;49.194;12.526;2024-03-08T14:23:05;11.70;90.10
18141;DHT22;9196;49.194;12.526;2024-03-08T14:25:33;11.80;90.20
18141;DHT22;9196;49.194;12.526;2024-03-08T14:28:00;11.90;89.50
18141;DHT22;9196;49.194;12.526;2024-03-08T14:30:31;11.70;88.90
18141;DHT22;9196;49.194;12.526;2024-03-08T14:33:05;11.60;89.60
18141;DHT22;9196;49.194;12.526;2024-03-08T14:35:34;11.40;89.40
18141;DHT22;9196;49.194;12.526;2024-03-08T14:38:01;11.40;89.70
18141;DHT22;9196;49.194;12.526;2024-03-08T14:40:28;11.40;90.30
18141;DHT22;9196;49.194;12.526;2024-03-08T14:42:56;11.30;89.70
18141;DHT22;9196;49.194;12.526;2024-03-08T14:45:22;11.50;90.00
18141;DHT22;9196;49.194;12.526;2024-03-08T14:47:52;11.30;90.00
18141;DHT22;9196;49.194;12.526;2024-03-08T14:50:21;11.30;89.30
18141;DHT22;9196;49.194;12.526;2024-03-08T14:52:49;11.10;90.50
18141;DHT22;9196;49.194;12.526;2024-03-08T14:55:16;11.00;90.70
18141;DHT22;9196;49.194;12.526;2024-03-08T14:57:45;11.10;90.80
18141;DHT22;9196;49.194;12.526;2024-03-08T15:00:13;11.00;90.30
18141;DHT22;9196;49.194;12.526;2024-03-08T15:02:44;10.70;90.60
18141;DHT22;9196;49.194;12.526;2024-03-08T15:05:13;10.50;91.30
18141;DHT22;9196;49.194;12.526;2024-03-08T15:07:46;10.50;91.60
18141;DHT22;9196;49.194;12.526;2024-03-08T15:10:14;10.50;92.10
18141;DHT22;9196;49.194;12.526;2024-03-08T15:12:44;10.80;91.60
18141;DHT22;9196;49.194;12.526;2024-03-08T15:15:11;10.80;91.30
18141;DHT22;9196;49.194;12.526;2024-03-08T15:17:39;10.90;91.30
18141;DHT22;9196;49.194;12.526;2024-03-08T15:20:08;11.00;91.40
18141;DHT22;9196;49.194;12.526;2024-03-08T15:22:46;11.00;90.70
18141;DHT22;9196;49.194;12.526;2024-03-08T15:25:13;10.80;91.10
18141;DHT22;9196;49.194;12.526;2024-03-08T15:27:46;10.70;91.20
18141;DHT22;9196;49.194;12.526;2024-03-08T15:30:14;10.80;91.10
18141;DHT22;9196;49.194;12.526;2024-03-08T15:32:44;10.70;90.80
18141;DHT22;9196;49.194;12.526;2024-03-08T15:35:11;10.60;91.50
18141;DHT22;9196;49.194;12.526;2024-03-08T15:37:40;10.60;91.70
18141;DHT22;9196;49.194;12.526;2024-03-08T15:40:11;10.80;91.60
18141;DHT22;9196;49.194;12.526;2024-03-08T15:42:47;10.80;91.50
18141;DHT22;9196;49.194;12.526;2024-03-08T15:45:16;10.60;91.30
18141;DHT22;9196;49.194;12.526;2024-03-08T15:47:43;10.50;91.50
18141;DHT22;9196;49.194;12.526;2024-03-08T15:50:10;10.00;92.20